Terminal Aerodrome Forecast
Issued by NWS

Current Version | Previous Version | Text Only | Print | Product List | Glossary On
Versions: 1 2 3 4 5 6 7 8 9 10 11 12 13 14 15 16 17 18 19
000
FTAK31 PAJN 270540
TAFAWG
TAF
PAWG 270540Z 2706/2806 VRB02KT P6SM VCSH SCT005 BKN015 OVC045
      TEMPO 2706/2709 -SHRA SCT002 BKN015 OVC035
     FM270900 VRB02KT P6SM VCSH BKN015 OVC025
     FM271500 29003KT P6SM SCT015 OVC035
     FM271800 31005KT P6SM BKN040 OVC060
      AMD NOT SKED=

USA.gov is the U.S. government's official web portal to all federal, state and local government web resources and services.